GCFV METAR and TAF | Updated Today

GCFV METAR

Fuerteventura Airport

Observation time: 30 min. ago

GCFV 010830Z 03018KT 9999 FEW030 23/17 Q1016

Need help? Read our tutorial on how to read METARs or read the parsed version below.

Fuerteventura Airport (GCFV) METAR

  • Weather conditions on Sat, 01 Oct 2022 08:30:00 +0000 (30 min. ago):
  • Present conditions: Dry
  • Clouds: A few at 914 meters
  • Visibility: Greater than 10 km
  • Wind: 30 degrees at 18 knots
  • Temperature: 23 celsius
  • Dew point: 17 celsius
  • Pressure: 1016 millibars
  • Remarks: None


Useful to know...

GCFV TAF

Fuerteventura Airport

TAF GCFV 010800Z 0109/0209 04018KT 9999 SCT025 TX26/0114Z TN21/0206Z PROB30 TEMPO 0109/0114 04017G27KT BECMG 0123/0201 02008KT
Observation time: 60 min. ago
Need help? Read our tutorial on how to read TAFs or read the parsed version below.

Parsed version of TAF for Fuerteventura Airport (GCFV)

  • From 01 October at 09:00 UTC, to day 02 of the month at 09:00 UTC
  • Clouds: Scattered at 762 meters
  • Visibility: Greater than 10 km
  • Wind: 40 degrees at 18
  • Expected to arise temporarily, from 01 October at 09:00 UTC, to day 01 of the month at 14:00 UTC
    Probability of 30%
  • Wind: 40 degrees at 17
  • Expected to arise soon, from 01 October at 23:00 UTC, to day 02 of the month at 01:00 UTC
  • Wind: 20 degrees at 8